Portada
METAR-TAF:

METAR-TAF

Aeroports :

Màlaga, Espanya

latitud: 36-40N, longitud: 004-29W, altitud: 16 m

Observació

L'informe es va fer fa 23 minuts, a les 22:30 UTC
Vent 8 kt del Oest/Nord-Oest
Temperatura 29°C
Humitat 45%
Pressió 1010 hPa
Visibilitat 10 km o més
sense núvols per sota de 1500 mi sense presència de cumulonimbus.

METAR: LEMG 252230Z 29008KT CAVOK 29/16 Q1010 NOSIG

Hora: 00:53 (22:53 UTC)

Pronòstic

L'informe es va fer fa 5 hores i 53 minuts, a les 17:00 UTC
Pronòstic vàlid del 25 a les 18 UTC al 26 a les 18 UTC
Vent 12 kt del Oest/Nord-Oest
Visibilitat 10 km o més
sense núvols per sota de 1500 mi sense presència de cumulonimbus.
Evolucionant progressivament
l' 26 a les 12 UTC al 26 a les 14 UTC
Vent 8 kt del Sud/Sud-Est

TAF: LEMG 251700Z 2518/2618 30012KT CAVOK TX34/2614Z TN25/2606Z BECMG 2612/2614 16008KT

Observacions i pronòstics meteorològics de més de 4000 aeroports (METAR i TAF).

Les estacions disponibles són els punts grocs i vermells al mapa.

Posi el ratolí al punt desitjat per veure el nom de l'estació.

Feu clic per veure les observacions i els pronòstics meteorològics.

Per canviar el mapa: feu clic els botons verds amb una creu de color negre per apropar; al botó verd amb un guió per allunyar la imatge; o en les fletxes verdes per a mapes adjacents.


METAR-TAF: